sensor_id;sensor_type;location;lat;lon;timestamp;P1;durP1;ratioP1;P2;durP2;ratioP2
21233;SDS011;10774;42.178;26.578;2023-06-19T00:00:00;6.53;;;3.67;;
21233;SDS011;10774;42.178;26.578;2023-06-19T00:02:25;6.32;;;4.72;;
21233;SDS011;10774;42.178;26.578;2023-06-19T00:04:51;6.53;;;4.10;;
21233;SDS011;10774;42.178;26.578;2023-06-19T00:07:16;4.95;;;3.83;;
21233;SDS011;10774;42.178;26.578;2023-06-19T00:09:41;7.88;;;4.38;;
21233;SDS011;10774;42.178;26.578;2023-06-19T00:12:07;6.20;;;4.00;;
21233;SDS011;10774;42.178;26.578;2023-06-19T00:14:32;8.05;;;4.03;;
21233;SDS011;10774;42.178;26.578;2023-06-19T00:17:00;12.10;;;4.13;;
21233;SDS011;10774;42.178;26.578;2023-06-19T00:19:26;6.20;;;4.20;;
21233;SDS011;10774;42.178;26.578;2023-06-19T00:21:51;7.75;;;4.57;;
21233;SDS011;10774;42.178;26.578;2023-06-19T00:24:22;9.57;;;4.13;;
21233;SDS011;10774;42.178;26.578;2023-06-19T00:26:47;7.47;;;3.97;;
21233;SDS011;10774;42.178;26.578;2023-06-19T00:29:13;6.15;;;4.00;;
21233;SDS011;10774;42.178;26.578;2023-06-19T00:31:38;5.68;;;4.05;;
21233;SDS011;10774;42.178;26.578;2023-06-19T00:34:04;7.07;;;3.92;;
21233;SDS011;10774;42.178;26.578;2023-06-19T00:36:30;7.85;;;3.70;;
21233;SDS011;10774;42.178;26.578;2023-06-19T00:38:55;6.50;;;3.90;;
21233;SDS011;10774;42.178;26.578;2023-06-19T00:41:21;8.00;;;4.20;;
21233;SDS011;10774;42.178;26.578;2023-06-19T00:43:47;10.00;;;4.78;;
21233;SDS011;10774;42.178;26.578;2023-06-19T00:46:13;7.78;;;4.57;;
21233;SDS011;10774;42.178;26.578;2023-06-19T00:48:38;8.93;;;4.57;;
21233;SDS011;10774;42.178;26.578;2023-06-19T00:51:04;9.98;;;4.43;;
21233;SDS011;10774;42.178;26.578;2023-06-19T00:53:30;10.10;;;4.45;;
21233;SDS011;10774;42.178;26.578;2023-06-19T00:55:57;8.57;;;4.53;;
21233;SDS011;10774;42.178;26.578;2023-06-19T00:58:24;6.55;;;4.05;;
21233;SDS011;10774;42.178;26.578;2023-06-19T01:03:33;5.97;;;4.53;;
21233;SDS011;10774;42.178;26.578;2023-06-19T01:05:58;9.88;;;4.70;;
21233;SDS011;10774;42.178;26.578;2023-06-19T01:11:08;8.82;;;4.65;;
21233;SDS011;10774;42.178;26.578;2023-06-19T01:13:41;12.10;;;4.50;;
21233;SDS011;10774;42.178;26.578;2023-06-19T01:16:25;7.25;;;4.80;;
21233;SDS011;10774;42.178;26.578;2023-06-19T01:18:51;11.80;;;4.72;;
21233;SDS011;10774;42.178;26.578;2023-06-19T01:21:18;8.88;;;4.28;;
21233;SDS011;10774;42.178;26.578;2023-06-19T01:23:44;13.05;;;4.78;;
21233;SDS011;10774;42.178;26.578;2023-06-19T01:26:11;8.65;;;4.68;;
21233;SDS011;10774;42.178;26.578;2023-06-19T01:28:38;8.57;;;4.75;;
21233;SDS011;10774;42.178;26.578;2023-06-19T01:33:50;8.48;;;4.65;;
21233;SDS011;10774;42.178;26.578;2023-06-19T01:36:17;12.30;;;5.10;;
21233;SDS011;10774;42.178;26.578;2023-06-19T01:38:45;11.48;;;4.93;;
21233;SDS011;10774;42.178;26.578;2023-06-19T01:41:13;8.05;;;5.13;;
21233;SDS011;10774;42.178;26.578;2023-06-19T01:43:40;10.80;;;4.75;;
21233;SDS011;10774;42.178;26.578;2023-06-19T01:46:07;9.80;;;4.63;;
21233;SDS011;10774;42.178;26.578;2023-06-19T01:48:34;12.23;;;4.57;;
21233;SDS011;10774;42.178;26.578;2023-06-19T01:51:01;7.57;;;4.35;;
21233;SDS011;10774;42.178;26.578;2023-06-19T01:53:29;10.73;;;4.72;;
21233;SDS011;10774;42.178;26.578;2023-06-19T01:55:55;7.43;;;4.82;;
21233;SDS011;10774;42.178;26.578;2023-06-19T01:58:21;10.68;;;4.35;;
21233;SDS011;10774;42.178;26.578;2023-06-19T02:00:46;8.82;;;4.88;;
21233;SDS011;10774;42.178;26.578;2023-06-19T02:03:12;9.20;;;4.40;;
21233;SDS011;10774;42.178;26.578;2023-06-19T02:05:37;8.50;;;4.70;;
21233;SDS011;10774;42.178;26.578;2023-06-19T02:08:04;6.65;;;4.22;;
21233;SDS011;10774;42.178;26.578;2023-06-19T02:10:31;7.05;;;4.57;;
21233;SDS011;10774;42.178;26.578;2023-06-19T02:12:56;7.30;;;4.60;;
21233;SDS011;10774;42.178;26.578;2023-06-19T02:15:22;7.82;;;5.47;;
21233;SDS011;10774;42.178;26.578;2023-06-19T02:17:47;6.90;;;4.38;;
21233;SDS011;10774;42.178;26.578;2023-06-19T02:20:13;9.80;;;4.45;;
21233;SDS011;10774;42.178;26.578;2023-06-19T02:22:38;7.80;;;5.05;;
21233;SDS011;10774;42.178;26.578;2023-06-19T02:25:04;13.98;;;4.68;;
21233;SDS011;10774;42.178;26.578;2023-06-19T02:27:31;11.23;;;4.88;;
21233;SDS011;10774;42.178;26.578;2023-06-19T02:29:56;6.63;;;4.35;;
21233;SDS011;10774;42.178;26.578;2023-06-19T02:32:22;10.00;;;4.60;;
21233;SDS011;10774;42.178;26.578;2023-06-19T02:34:47;7.35;;;4.43;;
21233;SDS011;10774;42.178;26.578;2023-06-19T02:37:13;8.32;;;4.40;;
21233;SDS011;10774;42.178;26.578;2023-06-19T02:39:38;10.77;;;4.63;;
21233;SDS011;10774;42.178;26.578;2023-06-19T02:42:04;9.13;;;4.65;;
21233;SDS011;10774;42.178;26.578;2023-06-19T02:44:30;8.57;;;4.57;;
21233;SDS011;10774;42.178;26.578;2023-06-19T02:46:55;12.68;;;5.05;;
21233;SDS011;10774;42.178;26.578;2023-06-19T02:49:20;8.60;;;5.15;;
21233;SDS011;10774;42.178;26.578;2023-06-19T02:51:46;8.02;;;4.72;;
21233;SDS011;10774;42.178;26.578;2023-06-19T02:54:11;7.53;;;4.60;;
21233;SDS011;10774;42.178;26.578;2023-06-19T02:56:37;7.10;;;4.70;;
21233;SDS011;10774;42.178;26.578;2023-06-19T02:59:03;12.48;;;5.10;;
21233;SDS011;10774;42.178;26.578;2023-06-19T03:01:28;9.73;;;4.18;;
21233;SDS011;10774;42.178;26.578;2023-06-19T03:03:54;7.28;;;4.88;;
21233;SDS011;10774;42.178;26.578;2023-06-19T03:06:19;8.48;;;4.80;;
21233;SDS011;10774;42.178;26.578;2023-06-19T03:08:45;9.02;;;4.93;;
21233;SDS011;10774;42.178;26.578;2023-06-19T03:11:11;7.40;;;4.65;;
21233;SDS011;10774;42.178;26.578;2023-06-19T03:13:52;7.82;;;4.50;;
21233;SDS011;10774;42.178;26.578;2023-06-19T03:16:19;10.77;;;5.00;;
21233;SDS011;10774;42.178;26.578;2023-06-19T03:18:46;11.85;;;4.63;;
21233;SDS011;10774;42.178;26.578;2023-06-19T03:21:15;8.40;;;4.47;;
21233;SDS011;10774;42.178;26.578;2023-06-19T03:23:40;9.65;;;4.70;;
21233;SDS011;10774;42.178;26.578;2023-06-19T03:26:09;6.97;;;4.80;;
21233;SDS011;10774;42.178;26.578;2023-06-19T03:28:35;8.50;;;4.78;;
21233;SDS011;10774;42.178;26.578;2023-06-19T03:31:01;6.85;;;5.05;;
21233;SDS011;10774;42.178;26.578;2023-06-19T03:33:27;8.52;;;5.20;;
21233;SDS011;10774;42.178;26.578;2023-06-19T03:35:53;10.93;;;4.90;;
21233;SDS011;10774;42.178;26.578;2023-06-19T03:38:18;7.82;;;4.53;;
21233;SDS011;10774;42.178;26.578;2023-06-19T03:40:43;6.75;;;4.70;;
21233;SDS011;10774;42.178;26.578;2023-06-19T03:43:09;11.05;;;4.97;;
21233;SDS011;10774;42.178;26.578;2023-06-19T03:45:35;8.70;;;5.75;;
21233;SDS011;10774;42.178;26.578;2023-06-19T03:48:01;8.80;;;5.03;;
21233;SDS011;10774;42.178;26.578;2023-06-19T03:50:26;10.02;;;5.18;;
21233;SDS011;10774;42.178;26.578;2023-06-19T03:52:52;9.57;;;4.80;;
21233;SDS011;10774;42.178;26.578;2023-06-19T03:55:17;7.18;;;4.63;;
21233;SDS011;10774;42.178;26.578;2023-06-19T03:57:43;9.55;;;5.00;;
21233;SDS011;10774;42.178;26.578;2023-06-19T04:00:08;9.70;;;5.00;;
21233;SDS011;10774;42.178;26.578;2023-06-19T04:02:36;9.63;;;5.00;;
21233;SDS011;10774;42.178;26.578;2023-06-19T04:05:02;8.00;;;4.75;;
21233;SDS011;10774;42.178;26.578;2023-06-19T04:07:27;14.50;;;4.97;;
21233;SDS011;10774;42.178;26.578;2023-06-19T04:09:53;9.80;;;5.15;;
21233;SDS011;10774;42.178;26.578;2023-06-19T04:12:19;19.98;;;5.90;;
21233;SDS011;10774;42.178;26.578;2023-06-19T04:14:45;12.55;;;5.53;;
21233;SDS011;10774;42.178;26.578;2023-06-19T04:17:10;11.00;;;5.65;;
21233;SDS011;10774;42.178;26.578;2023-06-19T04:19:35;11.90;;;5.88;;
21233;SDS011;10774;42.178;26.578;2023-06-19T04:22:01;10.80;;;6.25;;
21233;SDS011;10774;42.178;26.578;2023-06-19T04:24:26;11.70;;;5.93;;
21233;SDS011;10774;42.178;26.578;2023-06-19T04:26:52;11.10;;;5.50;;
21233;SDS011;10774;42.178;26.578;2023-06-19T04:29:17;11.10;;;6.18;;
21233;SDS011;10774;42.178;26.578;2023-06-19T04:31:44;17.58;;;6.65;;
21233;SDS011;10774;42.178;26.578;2023-06-19T04:34:12;8.57;;;5.95;;
21233;SDS011;10774;42.178;26.578;2023-06-19T04:36:48;10.30;;;5.75;;
21233;SDS011;10774;42.178;26.578;2023-06-19T04:39:14;8.95;;;5.60;;
21233;SDS011;10774;42.178;26.578;2023-06-19T04:41:40;11.20;;;6.35;;
21233;SDS011;10774;42.178;26.578;2023-06-19T04:44:08;10.60;;;6.25;;
21233;SDS011;10774;42.178;26.578;2023-06-19T04:46:36;7.78;;;5.40;;
21233;SDS011;10774;42.178;26.578;2023-06-19T04:49:05;11.02;;;5.68;;
21233;SDS011;10774;42.178;26.578;2023-06-19T04:51:31;9.27;;;6.03;;
21233;SDS011;10774;42.178;26.578;2023-06-19T04:53:59;10.80;;;5.80;;
21233;SDS011;10774;42.178;26.578;2023-06-19T04:56:25;10.80;;;5.57;;
21233;SDS011;10774;42.178;26.578;2023-06-19T04:58:51;11.25;;;5.40;;
21233;SDS011;10774;42.178;26.578;2023-06-19T05:01:17;12.60;;;5.53;;
21233;SDS011;10774;42.178;26.578;2023-06-19T05:03:43;7.35;;;5.55;;
21233;SDS011;10774;42.178;26.578;2023-06-19T05:06:11;22.55;;;6.25;;
21233;SDS011;10774;42.178;26.578;2023-06-19T05:08:36;14.52;;;6.68;;
21233;SDS011;10774;42.178;26.578;2023-06-19T05:11:02;32.85;;;9.43;;
21233;SDS011;10774;42.178;26.578;2023-06-19T05:13:27;15.02;;;7.28;;
21233;SDS011;10774;42.178;26.578;2023-06-19T05:15:53;17.27;;;7.50;;
21233;SDS011;10774;42.178;26.578;2023-06-19T05:18:18;8.98;;;7.38;;
21233;SDS011;10774;42.178;26.578;2023-06-19T05:20:44;12.73;;;7.30;;
21233;SDS011;10774;42.178;26.578;2023-06-19T05:23:09;41.25;;;9.48;;
21233;SDS011;10774;42.178;26.578;2023-06-19T05:25:35;10.20;;;7.78;;
21233;SDS011;10774;42.178;26.578;2023-06-19T05:28:01;15.35;;;8.85;;
21233;SDS011;10774;42.178;26.578;2023-06-19T05:30:26;12.85;;;8.07;;
21233;SDS011;10774;42.178;26.578;2023-06-19T05:32:52;14.18;;;7.80;;
21233;SDS011;10774;42.178;26.578;2023-06-19T05:35:17;15.38;;;7.70;;
21233;SDS011;10774;42.178;26.578;2023-06-19T05:37:43;10.93;;;8.07;;
21233;SDS011;10774;42.178;26.578;2023-06-19T05:40:09;13.68;;;7.18;;
21233;SDS011;10774;42.178;26.578;2023-06-19T05:42:35;17.00;;;8.63;;
21233;SDS011;10774;42.178;26.578;2023-06-19T05:45:01;12.38;;;9.18;;
21233;SDS011;10774;42.178;26.578;2023-06-19T05:47:27;12.38;;;8.23;;
21233;SDS011;10774;42.178;26.578;2023-06-19T05:49:54;9.15;;;8.02;;
21233;SDS011;10774;42.178;26.578;2023-06-19T05:52:19;13.45;;;7.72;;
21233;SDS011;10774;42.178;26.578;2023-06-19T05:54:46;12.32;;;8.13;;
21233;SDS011;10774;42.178;26.578;2023-06-19T05:57:11;9.63;;;8.05;;
21233;SDS011;10774;42.178;26.578;2023-06-19T05:59:37;8.68;;;7.57;;
21233;SDS011;10774;42.178;26.578;2023-06-19T06:02:02;11.88;;;7.43;;
21233;SDS011;10774;42.178;26.578;2023-06-19T06:04:28;11.15;;;6.95;;
21233;SDS011;10774;42.178;26.578;2023-06-19T06:06:57;9.35;;;5.80;;
21233;SDS011;10774;42.178;26.578;2023-06-19T06:09:22;9.15;;;5.85;;
21233;SDS011;10774;42.178;26.578;2023-06-19T06:11:47;9.13;;;5.68;;
21233;SDS011;10774;42.178;26.578;2023-06-19T06:14:13;15.73;;;6.43;;
21233;SDS011;10774;42.178;26.578;2023-06-19T06:16:39;9.68;;;6.18;;
21233;SDS011;10774;42.178;26.578;2023-06-19T06:19:04;7.10;;;5.75;;
21233;SDS011;10774;42.178;26.578;2023-06-19T06:21:29;6.30;;;5.25;;
21233;SDS011;10774;42.178;26.578;2023-06-19T06:23:55;6.95;;;5.57;;
21233;SDS011;10774;42.178;26.578;2023-06-19T06:26:20;6.95;;;4.90;;
21233;SDS011;10774;42.178;26.578;2023-06-19T06:28:46;5.38;;;4.88;;
21233;SDS011;10774;42.178;26.578;2023-06-19T06:31:12;7.93;;;5.55;;
21233;SDS011;10774;42.178;26.578;2023-06-19T06:33:37;6.70;;;5.25;;
21233;SDS011;10774;42.178;26.578;2023-06-19T06:36:03;11.13;;;4.97;;
21233;SDS011;10774;42.178;26.578;2023-06-19T06:38:28;7.10;;;5.13;;
21233;SDS011;10774;42.178;26.578;2023-06-19T06:40:54;6.20;;;5.07;;
21233;SDS011;10774;42.178;26.578;2023-06-19T06:43:19;4.60;;;4.20;;
21233;SDS011;10774;42.178;26.578;2023-06-19T06:45:45;6.63;;;4.35;;
21233;SDS011;10774;42.178;26.578;2023-06-19T06:48:11;7.90;;;4.68;;
21233;SDS011;10774;42.178;26.578;2023-06-19T06:50:36;6.25;;;4.47;;
21233;SDS011;10774;42.178;26.578;2023-06-19T06:53:02;6.35;;;3.95;;
21233;SDS011;10774;42.178;26.578;2023-06-19T06:55:28;9.32;;;4.68;;
21233;SDS011;10774;42.178;26.578;2023-06-19T06:57:53;4.82;;;4.43;;
21233;SDS011;10774;42.178;26.578;2023-06-19T07:00:19;4.72;;;4.18;;
21233;SDS011;10774;42.178;26.578;2023-06-19T07:02:44;6.82;;;4.07;;
21233;SDS011;10774;42.178;26.578;2023-06-19T07:05:13;10.38;;;5.20;;
21233;SDS011;10774;42.178;26.578;2023-06-19T07:07:38;10.18;;;4.78;;
21233;SDS011;10774;42.178;26.578;2023-06-19T07:10:04;7.65;;;4.78;;
21233;SDS011;10774;42.178;26.578;2023-06-19T07:12:30;5.43;;;4.90;;
21233;SDS011;10774;42.178;26.578;2023-06-19T07:14:55;6.88;;;4.80;;
21233;SDS011;10774;42.178;26.578;2023-06-19T07:17:21;6.95;;;4.90;;
21233;SDS011;10774;42.178;26.578;2023-06-19T07:19:46;6.82;;;4.55;;
21233;SDS011;10774;42.178;26.578;2023-06-19T07:22:12;6.43;;;4.65;;
21233;SDS011;10774;42.178;26.578;2023-06-19T07:24:39;4.82;;;3.85;;
21233;SDS011;10774;42.178;26.578;2023-06-19T07:27:05;5.70;;;3.80;;
21233;SDS011;10774;42.178;26.578;2023-06-19T07:29:31;5.57;;;3.88;;
21233;SDS011;10774;42.178;26.578;2023-06-19T07:31:57;5.43;;;3.40;;
21233;SDS011;10774;42.178;26.578;2023-06-19T07:34:23;4.50;;;3.53;;
21233;SDS011;10774;42.178;26.578;2023-06-19T07:36:48;3.55;;;3.25;;
21233;SDS011;10774;42.178;26.578;2023-06-19T07:39:14;6.97;;;3.25;;
21233;SDS011;10774;42.178;26.578;2023-06-19T07:41:39;3.92;;;3.28;;
21233;SDS011;10774;42.178;26.578;2023-06-19T07:44:05;4.85;;;3.20;;
21233;SDS011;10774;42.178;26.578;2023-06-19T07:46:30;8.13;;;3.20;;
21233;SDS011;10774;42.178;26.578;2023-06-19T07:48:56;6.30;;;3.35;;
21233;SDS011;10774;42.178;26.578;2023-06-19T07:51:21;4.38;;;3.15;;
21233;SDS011;10774;42.178;26.578;2023-06-19T07:53:46;4.18;;;2.75;;
21233;SDS011;10774;42.178;26.578;2023-06-19T07:56:12;6.75;;;3.55;;
21233;SDS011;10774;42.178;26.578;2023-06-19T07:58:37;8.02;;;3.22;;
21233;SDS011;10774;42.178;26.578;2023-06-19T08:01:03;8.15;;;3.35;;
21233;SDS011;10774;42.178;26.578;2023-06-19T08:03:28;4.45;;;3.13;;
21233;SDS011;10774;42.178;26.578;2023-06-19T08:05:55;7.25;;;3.45;;
21233;SDS011;10774;42.178;26.578;2023-06-19T08:08:20;3.78;;;3.33;;
21233;SDS011;10774;42.178;26.578;2023-06-19T08:10:46;7.15;;;3.20;;
21233;SDS011;10774;42.178;26.578;2023-06-19T08:13:11;6.15;;;3.05;;
21233;SDS011;10774;42.178;26.578;2023-06-19T08:15:37;4.90;;;3.08;;
21233;SDS011;10774;42.178;26.578;2023-06-19T08:18:02;5.97;;;3.10;;
21233;SDS011;10774;42.178;26.578;2023-06-19T08:20:28;8.32;;;4.13;;
21233;SDS011;10774;42.178;26.578;2023-06-19T08:22:53;9.18;;;3.70;;
21233;SDS011;10774;42.178;26.578;2023-06-19T08:25:19;4.03;;;3.22;;
21233;SDS011;10774;42.178;26.578;2023-06-19T08:27:44;7.15;;;3.38;;
21233;SDS011;10774;42.178;26.578;2023-06-19T08:30:13;4.88;;;3.42;;
21233;SDS011;10774;42.178;26.578;2023-06-19T08:32:38;6.65;;;3.13;;
21233;SDS011;10774;42.178;26.578;2023-06-19T08:35:04;5.30;;;3.70;;
21233;SDS011;10774;42.178;26.578;2023-06-19T08:37:29;4.85;;;3.47;;
21233;SDS011;10774;42.178;26.578;2023-06-19T08:39:55;8.88;;;3.03;;
21233;SDS011;10774;42.178;26.578;2023-06-19T08:42:24;7.03;;;3.20;;
21233;SDS011;10774;42.178;26.578;2023-06-19T08:44:50;6.57;;;3.40;;
21233;SDS011;10774;42.178;26.578;2023-06-19T08:47:15;6.03;;;3.10;;
21233;SDS011;10774;42.178;26.578;2023-06-19T08:49:41;5.70;;;2.92;;
21233;SDS011;10774;42.178;26.578;2023-06-19T08:52:07;5.78;;;3.15;;
21233;SDS011;10774;42.178;26.578;2023-06-19T08:54:33;3.67;;;3.20;;
21233;SDS011;10774;42.178;26.578;2023-06-19T08:57:01;4.03;;;2.70;;
21233;SDS011;10774;42.178;26.578;2023-06-19T08:59:27;6.60;;;3.05;;
21233;SDS011;10774;42.178;26.578;2023-06-19T09:01:55;5.22;;;3.42;;
21233;SDS011;10774;42.178;26.578;2023-06-19T09:04:24;9.50;;;3.78;;
21233;SDS011;10774;42.178;26.578;2023-06-19T09:06:56;3.95;;;2.92;;
21233;SDS011;10774;42.178;26.578;2023-06-19T09:09:27;5.03;;;3.30;;
21233;SDS011;10774;42.178;26.578;2023-06-19T09:12:12;4.65;;;3.03;;
21233;SDS011;10774;42.178;26.578;2023-06-19T09:14:39;3.90;;;3.05;;
21233;SDS011;10774;42.178;26.578;2023-06-19T09:17:06;6.15;;;3.22;;
21233;SDS011;10774;42.178;26.578;2023-06-19T09:19:35;5.65;;;3.17;;
21233;SDS011;10774;42.178;26.578;2023-06-19T09:22:04;4.75;;;2.72;;
21233;SDS011;10774;42.178;26.578;2023-06-19T09:24:35;4.72;;;2.78;;
21233;SDS011;10774;42.178;26.578;2023-06-19T09:27:09;6.05;;;3.00;;
21233;SDS011;10774;42.178;26.578;2023-06-19T09:29:45;5.53;;;2.88;;
21233;SDS011;10774;42.178;26.578;2023-06-19T09:37:17;3.33;;;2.95;;
21233;SDS011;10774;42.178;26.578;2023-06-19T09:42:38;4.78;;;3.17;;
21233;SDS011;10774;42.178;26.578;2023-06-19T09:45:05;5.22;;;3.28;;
21233;SDS011;10774;42.178;26.578;2023-06-19T09:47:39;5.30;;;3.00;;
21233;SDS011;10774;42.178;26.578;2023-06-19T09:50:08;6.63;;;3.40;;
21233;SDS011;10774;42.178;26.578;2023-06-19T09:52:37;6.32;;;2.97;;
21233;SDS011;10774;42.178;26.578;2023-06-19T09:55:05;7.35;;;3.80;;
21233;SDS011;10774;42.178;26.578;2023-06-19T09:57:34;4.22;;;3.15;;
21233;SDS011;10774;42.178;26.578;2023-06-19T10:00:04;3.90;;;3.17;;
21233;SDS011;10774;42.178;26.578;2023-06-19T10:02:40;4.28;;;3.10;;
21233;SDS011;10774;42.178;26.578;2023-06-19T10:05:10;14.15;;;3.33;;
21233;SDS011;10774;42.178;26.578;2023-06-19T10:07:41;5.75;;;2.78;;
21233;SDS011;10774;42.178;26.578;2023-06-19T10:10:08;5.30;;;2.78;;
21233;SDS011;10774;42.178;26.578;2023-06-19T10:15:13;3.17;;;2.65;;
21233;SDS011;10774;42.178;26.578;2023-06-19T10:17:43;3.45;;;2.92;;
21233;SDS011;10774;42.178;26.578;2023-06-19T10:20:23;3.65;;;2.95;;
21233;SDS011;10774;42.178;26.578;2023-06-19T10:22:57;3.13;;;2.70;;
21233;SDS011;10774;42.178;26.578;2023-06-19T10:25:36;4.65;;;3.00;;
21233;SDS011;10774;42.178;26.578;2023-06-19T10:28:03;3.92;;;3.08;;
21233;SDS011;10774;42.178;26.578;2023-06-19T10:30:40;3.75;;;2.95;;
21233;SDS011;10774;42.178;26.578;2023-06-19T10:33:06;4.65;;;2.90;;
21233;SDS011;10774;42.178;26.578;2023-06-19T10:35:37;4.55;;;2.90;;
21233;SDS011;10774;42.178;26.578;2023-06-19T10:38:04;5.00;;;3.20;;
21233;SDS011;10774;42.178;26.578;2023-06-19T10:40:30;5.32;;;3.15;;
21233;SDS011;10774;42.178;26.578;2023-06-19T10:42:55;4.25;;;3.25;;
21233;SDS011;10774;42.178;26.578;2023-06-19T10:45:21;5.93;;;3.10;;
21233;SDS011;10774;42.178;26.578;2023-06-19T10:47:53;3.78;;;2.85;;
21233;SDS011;10774;42.178;26.578;2023-06-19T10:50:20;3.90;;;2.80;;
21233;SDS011;10774;42.178;26.578;2023-06-19T10:52:45;3.65;;;3.20;;
21233;SDS011;10774;42.178;26.578;2023-06-19T10:55:13;3.60;;;2.72;;
21233;SDS011;10774;42.178;26.578;2023-06-19T10:57:48;4.00;;;2.50;;
21233;SDS011;10774;42.178;26.578;2023-06-19T11:02:53;3.70;;;2.55;;
21233;SDS011;10774;42.178;26.578;2023-06-19T11:05:22;5.20;;;2.90;;
21233;SDS011;10774;42.178;26.578;2023-06-19T11:08:06;4.38;;;3.03;;
21233;SDS011;10774;42.178;26.578;2023-06-19T11:10:31;2.95;;;2.58;;
21233;SDS011;10774;42.178;26.578;2023-06-19T11:12:57;3.42;;;3.00;;
21233;SDS011;10774;42.178;26.578;2023-06-19T11:15:33;3.63;;;3.00;;
21233;SDS011;10774;42.178;26.578;2023-06-19T11:18:00;4.72;;;2.80;;
21233;SDS011;10774;42.178;26.578;2023-06-19T11:20:26;4.82;;;3.13;;
21233;SDS011;10774;42.178;26.578;2023-06-19T11:22:59;3.85;;;2.42;;
21233;SDS011;10774;42.178;26.578;2023-06-19T11:25:38;2.85;;;2.50;;
21233;SDS011;10774;42.178;26.578;2023-06-19T11:28:15;3.33;;;2.20;;
21233;SDS011;10774;42.178;26.578;2023-06-19T11:30:47;3.38;;;2.30;;
21233;SDS011;10774;42.178;26.578;2023-06-19T11:33:20;2.72;;;2.35;;
21233;SDS011;10774;42.178;26.578;2023-06-19T11:35:49;2.10;;;2.00;;
21233;SDS011;10774;42.178;26.578;2023-06-19T11:38:19;6.22;;;2.50;;
21233;SDS011;10774;42.178;26.578;2023-06-19T11:40:46;3.60;;;1.90;;
21233;SDS011;10774;42.178;26.578;2023-06-19T11:43:22;5.70;;;2.78;;
21233;SDS011;10774;42.178;26.578;2023-06-19T11:46:07;2.72;;;2.17;;
21233;SDS011;10774;42.178;26.578;2023-06-19T11:51:01;2.88;;;2.47;;
21233;SDS011;10774;42.178;26.578;2023-06-19T11:53:26;2.95;;;1.90;;
21233;SDS011;10774;42.178;26.578;2023-06-19T11:55:52;3.13;;;2.40;;
21233;SDS011;10774;42.178;26.578;2023-06-19T11:58:17;2.97;;;2.40;;
21233;SDS011;10774;42.178;26.578;2023-06-19T12:00:46;7.28;;;3.60;;
21233;SDS011;10774;42.178;26.578;2023-06-19T12:03:12;7.28;;;4.03;;
21233;SDS011;10774;42.178;26.578;2023-06-19T12:05:37;6.55;;;4.30;;
21233;SDS011;10774;42.178;26.578;2023-06-19T12:08:03;2.83;;;2.53;;
21233;SDS011;10774;42.178;26.578;2023-06-19T12:10:30;4.43;;;3.22;;
21233;SDS011;10774;42.178;26.578;2023-06-19T12:12:56;5.18;;;2.80;;
21233;SDS011;10774;42.178;26.578;2023-06-19T12:15:22;2.40;;;2.20;;
21233;SDS011;10774;42.178;26.578;2023-06-19T12:17:47;4.03;;;2.70;;
21233;SDS011;10774;42.178;26.578;2023-06-19T12:20:13;5.68;;;2.55;;
21233;SDS011;10774;42.178;26.578;2023-06-19T12:22:39;5.45;;;2.70;;
21233;SDS011;10774;42.178;26.578;2023-06-19T12:25:05;5.40;;;2.30;;
21233;SDS011;10774;42.178;26.578;2023-06-19T12:27:30;4.30;;;2.75;;
21233;SDS011;10774;42.178;26.578;2023-06-19T12:29:56;2.92;;;2.45;;
21233;SDS011;10774;42.178;26.578;2023-06-19T12:32:21;3.50;;;2.55;;
21233;SDS011;10774;42.178;26.578;2023-06-19T12:34:47;4.65;;;2.53;;
21233;SDS011;10774;42.178;26.578;2023-06-19T12:37:15;4.65;;;2.40;;
21233;SDS011;10774;42.178;26.578;2023-06-19T12:39:44;6.15;;;2.42;;
21233;SDS011;10774;42.178;26.578;2023-06-19T12:42:09;3.55;;;2.63;;
21233;SDS011;10774;42.178;26.578;2023-06-19T12:44:39;2.80;;;2.45;;
21233;SDS011;10774;42.178;26.578;2023-06-19T12:47:05;2.85;;;2.45;;
21233;SDS011;10774;42.178;26.578;2023-06-19T12:49:31;4.80;;;2.90;;
21233;SDS011;10774;42.178;26.578;2023-06-19T12:51:57;3.95;;;2.72;;
21233;SDS011;10774;42.178;26.578;2023-06-19T12:54:22;3.47;;;2.70;;
21233;SDS011;10774;42.178;26.578;2023-06-19T12:56:48;5.22;;;2.72;;
21233;SDS011;10774;42.178;26.578;2023-06-19T12:59:14;6.45;;;2.90;;
21233;SDS011;10774;42.178;26.578;2023-06-19T13:01:40;3.65;;;2.90;;
21233;SDS011;10774;42.178;26.578;2023-06-19T13:04:06;4.32;;;2.80;;
21233;SDS011;10774;42.178;26.578;2023-06-19T13:06:32;3.25;;;2.83;;
21233;SDS011;10774;42.178;26.578;2023-06-19T13:08:57;3.60;;;2.63;;
21233;SDS011;10774;42.178;26.578;2023-06-19T13:11:23;4.10;;;2.72;;
21233;SDS011;10774;42.178;26.578;2023-06-19T13:13:48;5.25;;;2.72;;
21233;SDS011;10774;42.178;26.578;2023-06-19T13:16:14;3.53;;;2.47;;
21233;SDS011;10774;42.178;26.578;2023-06-19T13:18:41;4.35;;;2.63;;
21233;SDS011;10774;42.178;26.578;2023-06-19T13:21:07;2.65;;;2.40;;
21233;SDS011;10774;42.178;26.578;2023-06-19T13:23:32;6.40;;;3.00;;
21233;SDS011;10774;42.178;26.578;2023-06-19T13:25:58;3.63;;;2.85;;
21233;SDS011;10774;42.178;26.578;2023-06-19T13:28:23;9.05;;;3.22;;
21233;SDS011;10774;42.178;26.578;2023-06-19T13:30:49;3.17;;;2.88;;
21233;SDS011;10774;42.178;26.578;2023-06-19T13:33:15;5.93;;;3.10;;
21233;SDS011;10774;42.178;26.578;2023-06-19T13:35:41;4.80;;;2.83;;
21233;SDS011;10774;42.178;26.578;2023-06-19T13:38:07;3.60;;;2.95;;
21233;SDS011;10774;42.178;26.578;2023-06-19T13:40:33;5.72;;;2.95;;
21233;SDS011;10774;42.178;26.578;2023-06-19T13:42:58;3.50;;;2.88;;
21233;SDS011;10774;42.178;26.578;2023-06-19T13:45:24;4.15;;;2.80;;
21233;SDS011;10774;42.178;26.578;2023-06-19T13:47:50;7.40;;;3.10;;
21233;SDS011;10774;42.178;26.578;2023-06-19T13:50:16;4.80;;;2.88;;
21233;SDS011;10774;42.178;26.578;2023-06-19T13:52:44;3.13;;;2.83;;
21233;SDS011;10774;42.178;26.578;2023-06-19T13:55:13;7.72;;;3.05;;
21233;SDS011;10774;42.178;26.578;2023-06-19T13:57:39;7.10;;;3.05;;
21233;SDS011;10774;42.178;26.578;2023-06-19T14:00:06;4.63;;;2.95;;
21233;SDS011;10774;42.178;26.578;2023-06-19T14:02:32;5.47;;;2.22;;
21233;SDS011;10774;42.178;26.578;2023-06-19T14:04:58;3.72;;;2.60;;
21233;SDS011;10774;42.178;26.578;2023-06-19T14:07:23;5.18;;;2.53;;
21233;SDS011;10774;42.178;26.578;2023-06-19T14:09:49;5.30;;;2.50;;
21233;SDS011;10774;42.178;26.578;2023-06-19T14:12:15;4.68;;;2.60;;
21233;SDS011;10774;42.178;26.578;2023-06-19T14:14:40;4.28;;;2.90;;
21233;SDS011;10774;42.178;26.578;2023-06-19T14:17:05;4.85;;;2.80;;
21233;SDS011;10774;42.178;26.578;2023-06-19T14:19:31;3.70;;;2.78;;
21233;SDS011;10774;42.178;26.578;2023-06-19T14:21:56;4.82;;;2.65;;
21233;SDS011;10774;42.178;26.578;2023-06-19T14:24:22;5.82;;;2.65;;
21233;SDS011;10774;42.178;26.578;2023-06-19T14:26:49;7.15;;;3.05;;
21233;SDS011;10774;42.178;26.578;2023-06-19T14:29:14;5.47;;;3.13;;
21233;SDS011;10774;42.178;26.578;2023-06-19T14:31:43;6.82;;;2.90;;
21233;SDS011;10774;42.178;26.578;2023-06-19T14:34:09;3.75;;;3.00;;
21233;SDS011;10774;42.178;26.578;2023-06-19T14:36:34;6.55;;;2.70;;
21233;SDS011;10774;42.178;26.578;2023-06-19T14:38:59;7.22;;;3.15;;
21233;SDS011;10774;42.178;26.578;2023-06-19T14:41:25;6.50;;;3.10;;
21233;SDS011;10774;42.178;26.578;2023-06-19T14:43:51;4.75;;;3.10;;
21233;SDS011;10774;42.178;26.578;2023-06-19T14:46:16;6.18;;;3.50;;
21233;SDS011;10774;42.178;26.578;2023-06-19T14:48:41;5.32;;;3.25;;
21233;SDS011;10774;42.178;26.578;2023-06-19T14:51:07;6.47;;;2.88;;